createdAt,value
2023-02-08T00:00:33.566Z,103740.56
2023-02-08T00:03:37.069Z,103742.16
2023-02-08T00:06:40.197Z,103741.22
2023-02-08T00:09:46.069Z,103740.31
2023-02-08T00:12:52.222Z,103736.97
2023-02-08T00:15:56.996Z,103732.75
2023-02-08T00:19:00.115Z,103726.03
2023-02-08T00:22:03.362Z,103737.97
2023-02-08T00:25:07.974Z,103733.56
2023-02-08T00:28:16.203Z,103726.78
2023-02-08T00:31:21.774Z,103733.50
2023-02-08T00:34:25.948Z,103741.00
2023-02-08T00:37:29.169Z,103735.00
2023-02-08T00:40:32.398Z,103728.03
2023-02-08T00:43:38.437Z,103722.94
2023-02-08T00:46:42.836Z,103729.63
2023-02-08T00:49:47.130Z,103726.16
2023-02-08T00:52:50.998Z,103731.13
2023-02-08T00:55:55.252Z,103722.69
2023-02-08T00:58:58.367Z,103723.63
2023-02-08T01:02:04.977Z,103730.84
2023-02-08T01:05:08.955Z,103727.44
2023-02-08T01:08:12.145Z,103732.47
2023-02-08T01:11:20.019Z,103735.84
2023-02-08T01:14:23.398Z,103733.28
2023-02-08T01:17:30.449Z,103734.78
2023-02-08T01:20:37.048Z,103734.78
2023-02-08T01:23:42.227Z,103734.31
2023-02-08T01:26:47.044Z,103739.22
2023-02-08T01:29:53.648Z,103736.81
2023-02-08T01:33:01.043Z,103737.19
2023-02-08T01:36:07.175Z,103723.69
2023-02-08T01:39:12.855Z,103729.50
2023-02-08T01:42:17.729Z,103724.00
2023-02-08T01:45:28.164Z,103721.59
2023-02-08T01:48:38.161Z,103724.19
2023-02-08T01:51:46.672Z,103725.25
2023-02-08T01:54:54.894Z,103722.81
2023-02-08T01:58:05.777Z,103729.56
2023-02-08T02:01:10.084Z,103729.44
2023-02-08T02:04:15.782Z,103729.38
2023-02-08T02:07:21.427Z,103725.84
2023-02-08T02:10:35.120Z,103728.38
2023-02-08T02:13:42.689Z,103721.41
2023-02-08T02:16:46.957Z,103718.78
2023-02-08T02:19:58.381Z,103710.38
2023-02-08T02:23:58.078Z,103724.38
2023-02-08T02:27:27.329Z,103722.53
2023-02-08T02:31:26.807Z,103729.91
2023-02-08T02:34:55.161Z,103730.53
2023-02-08T02:38:11.546Z,103725.19
2023-02-08T02:41:41.406Z,103734.53
2023-02-08T02:44:59.481Z,103730.06
2023-02-08T02:48:13.072Z,103723.84
2023-02-08T02:51:25.268Z,103734.63
2023-02-08T02:54:37.666Z,103741.38
2023-02-08T02:57:45.919Z,103745.53
2023-02-08T03:00:54.920Z,103741.13
2023-02-08T03:04:00.973Z,103746.00
2023-02-08T03:07:15.290Z,103744.59
2023-02-08T03:10:38.732Z,103740.31
2023-02-08T03:14:20.374Z,103733.50
2023-02-08T03:17:47.045Z,103738.44
2023-02-08T03:21:02.204Z,103736.69
2023-02-08T03:24:20.177Z,103737.63
2023-02-08T03:27:32.883Z,103732.94
2023-02-08T03:30:51.133Z,103733.75
2023-02-08T03:34:05.999Z,103734.63
2023-02-08T03:37:22.395Z,103738.84
2023-02-08T03:40:32.425Z,103743.59
2023-02-08T03:43:39.736Z,103737.50
2023-02-08T03:46:48.353Z,103740.03
2023-02-08T03:49:54.567Z,103734.97
2023-02-08T03:53:00.429Z,103733.75
2023-02-08T03:56:12.258Z,103731.28
2023-02-08T03:59:23.234Z,103733.50
2023-02-08T04:02:31.392Z,103734.50
2023-02-08T04:05:34.844Z,103735.44
2023-02-08T04:08:41.710Z,103726.75
2023-02-08T04:11:44.724Z,103729.13
2023-02-08T04:14:48.375Z,103736.84
2023-02-08T04:17:51.449Z,103733.09
2023-02-08T04:20:54.754Z,103735.97
2023-02-08T04:23:59.155Z,103734.38
2023-02-08T04:27:06.040Z,103733.44
2023-02-08T04:30:10.830Z,103735.22
2023-02-08T04:33:14.985Z,103743.59
2023-02-08T04:36:18.042Z,103744.97
2023-02-08T04:39:22.371Z,103738.16
2023-02-08T04:42:25.354Z,103738.09
2023-02-08T04:45:29.898Z,103729.63
2023-02-08T04:48:33.026Z,103731.09
2023-02-08T04:51:38.729Z,103734.69
2023-02-08T04:54:43.131Z,103736.44
2023-02-08T04:57:46.194Z,103736.28
2023-02-08T05:00:49.296Z,103738.09
2023-02-08T05:03:52.413Z,103741.25
2023-02-08T05:06:55.960Z,103747.13
2023-02-08T05:10:06.763Z,103745.31
2023-02-08T05:13:12.813Z,103738.44
2023-02-08T05:16:16.664Z,103751.63
2023-02-08T05:19:19.785Z,103751.63
2023-02-08T05:22:22.854Z,103740.44
2023-02-08T05:25:27.259Z,103746.97
2023-02-08T05:28:30.341Z,103751.19
2023-02-08T05:31:33.646Z,103747.75
2023-02-08T05:34:38.561Z,103750.16
2023-02-08T05:37:44.480Z,103756.16
2023-02-08T05:40:49.022Z,103756.25
2023-02-08T05:44:01.317Z,103753.63
2023-02-08T05:47:06.318Z,103762.88
2023-02-08T05:50:37.038Z,103761.25
2023-02-08T05:53:50.312Z,103766.31
2023-02-08T05:56:55.067Z,103763.78
2023-02-08T06:00:03.788Z,103757.84
2023-02-08T06:03:21.501Z,103762.28
2023-02-08T06:06:33.684Z,103765.69
2023-02-08T06:09:40.232Z,103762.31
2023-02-08T06:12:47.382Z,103765.81
2023-02-08T06:15:51.101Z,103771.69
2023-02-08T06:18:54.424Z,103778.53
2023-02-08T06:22:14.250Z,103778.22
2023-02-08T06:25:20.966Z,103782.31
2023-02-08T06:28:38.455Z,103783.09
2023-02-08T06:32:46.183Z,103785.91
2023-02-08T06:36:19.694Z,103787.44
2023-02-08T06:39:32.099Z,103787.31
2023-02-08T06:42:35.974Z,103787.22
2023-02-08T06:45:40.493Z,103785.72
2023-02-08T06:48:43.547Z,103795.00
2023-02-08T06:51:47.072Z,103793.16
2023-02-08T06:54:50.153Z,103797.59
2023-02-08T06:57:54.831Z,103794.34
2023-02-08T07:00:59.308Z,103787.59
2023-02-08T07:04:02.559Z,103793.59
2023-02-08T07:07:05.701Z,103794.53
2023-02-08T07:10:09.403Z,103798.91
2023-02-08T07:13:12.651Z,103789.81
2023-02-08T07:16:18.658Z,103791.75
2023-02-08T07:19:22.398Z,103794.38
2023-02-08T07:22:25.719Z,103775.94
2023-02-08T07:25:28.691Z,103777.88
2023-02-08T07:28:32.521Z,103774.81
2023-02-08T07:31:38.963Z,103773.41
2023-02-08T07:34:45.593Z,103776.09
2023-02-08T07:37:48.816Z,103774.41
2023-02-08T07:40:51.921Z,103777.88
2023-02-08T07:43:55.064Z,103791.81
2023-02-08T07:46:59.577Z,103783.53
2023-02-08T07:50:02.640Z,103799.03
2023-02-08T07:53:05.823Z,103796.09
2023-02-08T07:56:10.331Z,103798.47
2023-02-08T07:59:16.424Z,103795.38
2023-02-08T08:02:20.918Z,103795.88
2023-02-08T08:05:24.495Z,103804.03
2023-02-08T08:08:27.627Z,103809.31
2023-02-08T08:11:30.768Z,103802.97
2023-02-08T08:14:34.306Z,103810.84
2023-02-08T08:17:42.160Z,103814.50
2023-02-08T08:20:45.541Z,103824.97
2023-02-08T08:23:48.576Z,103820.34
2023-02-08T08:26:51.852Z,103831.63
2023-02-08T08:29:55.651Z,103833.50
2023-02-08T08:33:00.005Z,103830.50
2023-02-08T08:36:05.557Z,103831.72
2023-02-08T08:39:08.650Z,103818.44
2023-02-08T08:42:13.699Z,103822.81
2023-02-08T08:45:17.012Z,103827.56
2023-02-08T08:48:21.806Z,103813.31
2023-02-08T08:51:24.951Z,103810.22
2023-02-08T08:54:30.829Z,103813.56
2023-02-08T08:57:34.236Z,103809.06
2023-02-08T09:00:37.333Z,103800.03
2023-02-08T09:03:41.756Z,103805.56
2023-02-08T09:06:45.296Z,103799.25
2023-02-08T09:09:48.685Z,103797.06
2023-02-08T09:12:53.047Z,103799.09
2023-02-08T09:15:56.225Z,103802.75
2023-02-08T09:19:03.431Z,103795.41
2023-02-08T09:22:08.113Z,103795.78
2023-02-08T09:25:11.378Z,103796.41
2023-02-08T09:28:14.864Z,103805.16
2023-02-08T09:31:22.324Z,103812.31
2023-02-08T09:34:27.076Z,103813.53
2023-02-08T09:37:34.034Z,103820.59
2023-02-08T09:40:47.957Z,103816.41
2023-02-08T09:44:01.122Z,103823.47
2023-02-08T09:47:13.090Z,103816.59
2023-02-08T09:50:23.111Z,103818.72
2023-02-08T09:53:34.309Z,103807.78
2023-02-08T09:56:42.295Z,103810.34
2023-02-08T09:59:53.854Z,103803.84
2023-02-08T10:02:59.893Z,103803.34
2023-02-08T10:06:06.252Z,103793.94
2023-02-08T10:09:15.723Z,103787.41
2023-02-08T10:12:31.004Z,103782.59
2023-02-08T10:15:42.248Z,103778.38
2023-02-08T10:18:51.727Z,103774.31
2023-02-08T10:22:11.493Z,103771.13
2023-02-08T10:25:43.600Z,103762.72
2023-02-08T10:29:27.116Z,103760.06
2023-02-08T10:32:48.205Z,103758.50
2023-02-08T10:35:52.784Z,103749.19
2023-02-08T10:38:58.111Z,103742.66
2023-02-08T10:42:01.364Z,103740.41
2023-02-08T10:45:24.191Z,103732.25
2023-02-08T10:48:42.548Z,103730.16
2023-02-08T10:51:46.800Z,103727.72
2023-02-08T10:54:51.400Z,103713.56
2023-02-08T10:58:00.323Z,103724.09
2023-02-08T11:01:03.991Z,103721.75
2023-02-08T11:04:11.286Z,103717.38
2023-02-08T11:07:22.122Z,103704.84
2023-02-08T11:10:27.659Z,103707.53
2023-02-08T11:13:36.769Z,103697.41
2023-02-08T11:16:43.469Z,103705.47
2023-02-08T11:19:48.477Z,103692.78
2023-02-08T11:22:51.899Z,103701.53
2023-02-08T11:26:15.673Z,103690.59
2023-02-08T11:29:23.121Z,103695.00
2023-02-08T11:32:26.247Z,103684.88
2023-02-08T11:35:33.758Z,103677.00
2023-02-08T11:38:42.503Z,103689.72
2023-02-08T11:41:48.548Z,103681.25
2023-02-08T11:44:52.316Z,103673.22
2023-02-08T11:47:55.857Z,103672.75
2023-02-08T11:51:02.321Z,103664.19
2023-02-08T11:54:07.920Z,103675.34
2023-02-08T11:57:20.263Z,103668.34
2023-02-08T12:00:27.792Z,103665.03
2023-02-08T12:03:35.217Z,103670.06
2023-02-08T12:07:10.816Z,103665.84
2023-02-08T12:10:57.448Z,103659.56
2023-02-08T12:14:27.059Z,103660.13
2023-02-08T12:17:54.749Z,103658.50
2023-02-08T12:21:05.604Z,103660.00
2023-02-08T12:24:18.515Z,103671.22
2023-02-08T12:27:41.937Z,103677.09
2023-02-08T12:30:53.799Z,103677.34
2023-02-08T12:34:27.619Z,103675.78
2023-02-08T12:38:04.842Z,103667.16
2023-02-08T12:41:19.068Z,103675.66
2023-02-08T12:44:39.949Z,103663.06
2023-02-08T12:48:14.243Z,103667.56
2023-02-08T12:51:45.584Z,103659.63
2023-02-08T12:55:01.297Z,103656.47
2023-02-08T12:58:25.705Z,103652.00
2023-02-08T13:01:51.249Z,103656.44
2023-02-08T13:04:59.819Z,103653.03
2023-02-08T13:08:14.343Z,103643.81
2023-02-08T13:11:25.598Z,103637.81
2023-02-08T13:14:37.447Z,103640.28
2023-02-08T13:17:51.762Z,103632.56
2023-02-08T13:21:09.619Z,103640.41
2023-02-08T13:24:27.826Z,103630.56
2023-02-08T13:27:33.542Z,103628.78
2023-02-08T13:30:41.701Z,103621.88
2023-02-08T13:34:01.984Z,103615.91
2023-02-08T13:37:25.506Z,103614.31
2023-02-08T13:40:32.222Z,103609.97
2023-02-08T13:43:41.434Z,103607.59
2023-02-08T13:46:48.585Z,103614.59
2023-02-08T13:49:59.976Z,103606.16
2023-02-08T13:53:05.529Z,103602.84
2023-02-08T13:56:12.247Z,103600.06
2023-02-08T13:59:37.496Z,103595.97
2023-02-08T14:03:00.661Z,103600.47
2023-02-08T14:06:07.654Z,103592.66
2023-02-08T14:09:21.762Z,103595.34
2023-02-08T14:12:35.018Z,103592.47
2023-02-08T14:15:43.489Z,103591.00
2023-02-08T14:18:54.487Z,103582.47
2023-02-08T14:22:03.714Z,103582.53
2023-02-08T14:25:19.237Z,103581.41
2023-02-08T14:28:34.075Z,103580.59
2023-02-08T14:31:48.009Z,103580.66
2023-02-08T14:35:05.317Z,103575.38
2023-02-08T14:38:53.946Z,103564.84
2023-02-08T14:42:03.917Z,103574.91
2023-02-08T14:45:29.759Z,103573.88
2023-02-08T14:48:36.796Z,103578.16
2023-02-08T14:51:51.908Z,103568.41
2023-02-08T14:55:04.008Z,103564.84
2023-02-08T14:58:20.856Z,103564.84
2023-02-08T15:01:43.958Z,103561.28
2023-02-08T15:04:47.972Z,103564.81
2023-02-08T15:07:56.846Z,103560.41
2023-02-08T15:11:00.212Z,103558.66
2023-02-08T15:14:06.824Z,103562.06
2023-02-08T15:17:29.301Z,103560.16
2023-02-08T15:20:44.111Z,103547.22
2023-02-08T15:24:01.141Z,103544.66
2023-02-08T15:27:21.618Z,103538.59
2023-02-08T15:30:34.539Z,103542.81
2023-02-08T15:33:47.188Z,103534.16
2023-02-08T15:36:55.674Z,103537.56
2023-02-08T15:40:01.063Z,103533.22
2023-02-08T15:43:15.714Z,103537.41
2023-02-08T15:46:26.730Z,103527.06
2023-02-08T15:49:33.309Z,103525.06
2023-02-08T15:52:42.557Z,103525.00
2023-02-08T15:55:51.185Z,103523.16
2023-02-08T15:58:57.014Z,103516.25
2023-02-08T16:02:19.402Z,103511.03
2023-02-08T16:05:28.533Z,103512.59
2023-02-08T16:08:35.438Z,103514.25
2023-02-08T16:11:38.959Z,103515.09
2023-02-08T16:14:52.436Z,103519.25
2023-02-08T16:17:57.607Z,103520.91
2023-02-08T16:21:02.700Z,103515.69
2023-02-08T16:24:21.670Z,103515.50
2023-02-08T16:27:28.960Z,103514.63
2023-02-08T16:30:35.471Z,103516.25
2023-02-08T16:33:40.144Z,103511.09
2023-02-08T16:36:51.138Z,103520.31
2023-02-08T16:39:57.597Z,103521.97
2023-02-08T16:43:18.019Z,103515.97
2023-02-08T16:46:27.888Z,103515.09
2023-02-08T16:49:32.435Z,103518.53
2023-02-08T16:52:36.289Z,103515.84
2023-02-08T16:55:39.424Z,103525.00
2023-02-08T16:58:48.422Z,103513.81
2023-02-08T17:01:56.545Z,103507.91
2023-02-08T17:05:01.380Z,103505.16
2023-02-08T17:08:07.818Z,103508.44
2023-02-08T17:11:11.287Z,103508.44
2023-02-08T17:14:15.691Z,103513.41
2023-02-08T17:17:20.049Z,103513.34
2023-02-08T17:20:27.303Z,103509.09
2023-02-08T17:23:30.448Z,103507.25
2023-02-08T17:26:48.582Z,103505.56
2023-02-08T17:29:55.589Z,103512.97
2023-02-08T17:33:01.669Z,103506.16
2023-02-08T17:36:07.922Z,103512.81
2023-02-08T17:39:12.401Z,103509.16
2023-02-08T17:42:18.526Z,103501.38
2023-02-08T17:45:22.509Z,103496.13
2023-02-08T17:48:26.855Z,103501.09
2023-02-08T17:51:32.141Z,103502.06
2023-02-08T17:54:36.872Z,103491.00
2023-02-08T17:57:42.571Z,103479.13
2023-02-08T18:00:46.240Z,103483.19
2023-02-08T18:03:51.190Z,103479.69
2023-02-08T18:06:58.732Z,103475.25
2023-02-08T18:10:04.130Z,103476.91
2023-02-08T18:13:07.805Z,103478.69
2023-02-08T18:16:14.210Z,103473.66
2023-02-08T18:19:17.507Z,103468.38
2023-02-08T18:22:22.924Z,103472.72
2023-02-08T18:25:28.123Z,103470.06
2023-02-08T18:28:31.317Z,103463.97
2023-02-08T18:31:34.665Z,103469.06
2023-02-08T18:34:37.949Z,103461.41
2023-02-08T18:37:42.467Z,103457.97
2023-02-08T18:40:45.542Z,103451.88
2023-02-08T18:43:49.934Z,103451.78
2023-02-08T18:46:53.610Z,103441.56
2023-02-08T18:49:57.904Z,103446.63
2023-02-08T18:53:02.730Z,103437.19
2023-02-08T18:56:09.590Z,103431.16
2023-02-08T18:59:14.152Z,103432.88
2023-02-08T19:02:21.156Z,103427.78
2023-02-08T19:06:09.851Z,103428.53
2023-02-08T19:09:33.088Z,103418.25
2023-02-08T19:12:39.791Z,103417.31
2023-02-08T19:15:47.106Z,103407.06
2023-02-08T19:19:02.948Z,103409.50
2023-02-08T19:23:32.976Z,103405.13
2023-02-08T19:37:50.383Z,103387.72
2023-02-08T19:41:30.898Z,103389.34
2023-02-08T19:49:08.694Z,103385.81
2023-02-08T19:52:13.267Z,103380.66
2023-02-08T19:55:17.014Z,103373.78
2023-02-08T19:58:20.201Z,103366.13
2023-02-08T20:01:27.439Z,103368.66
2023-02-08T20:04:33.311Z,103358.44
2023-02-08T20:07:40.973Z,103354.09
2023-02-08T20:10:47.051Z,103358.34
2023-02-08T20:13:54.887Z,103357.31
2023-02-08T20:16:58.966Z,103359.81
2023-02-08T20:20:02.010Z,103360.66
2023-02-08T20:23:20.866Z,103357.25
2023-02-08T20:26:27.795Z,103349.47
2023-02-08T20:29:31.047Z,103357.16
2023-02-08T20:32:34.150Z,103362.16
2023-02-08T20:35:43.259Z,103358.56
2023-02-08T20:38:49.041Z,103356.09
2023-02-08T20:41:52.146Z,103351.81
2023-02-08T20:44:55.505Z,103351.81
2023-02-08T20:47:58.622Z,103355.16
2023-02-08T20:51:07.096Z,103346.63
2023-02-08T20:54:12.698Z,103345.75
2023-02-08T20:57:18.151Z,103333.72
2023-02-08T21:00:27.947Z,103338.84
2023-02-08T21:03:37.287Z,103327.72
2023-02-08T21:06:44.515Z,103322.56
2023-02-08T21:09:49.210Z,103335.28
2023-02-08T21:12:52.488Z,103326.59
2023-02-08T21:15:55.848Z,103323.34
2023-02-08T21:18:59.725Z,103316.44
2023-02-08T21:22:04.230Z,103318.97
2023-02-08T21:25:10.070Z,103321.44
2023-02-08T21:28:13.871Z,103307.03
2023-02-08T21:31:23.054Z,103301.00
2023-02-08T21:34:26.409Z,103299.28
2023-02-08T21:37:29.923Z,103303.41
2023-02-08T21:40:34.610Z,103295.84
2023-02-08T21:43:39.063Z,103294.00
2023-02-08T21:46:42.479Z,103279.66
2023-02-08T21:50:06.044Z,103286.53
2023-02-08T21:53:28.820Z,103276.88
2023-02-08T21:56:35.415Z,103272.81
2023-02-08T21:59:41.348Z,103263.47
2023-02-08T22:02:44.616Z,103260.19
2023-02-08T22:06:06.334Z,103260.16
2023-02-08T22:09:09.473Z,103255.88
2023-02-08T22:12:17.277Z,103249.91
2023-02-08T22:15:22.836Z,103252.38
2023-02-08T22:18:26.678Z,103249.03
2023-02-08T22:21:29.968Z,103235.38
2023-02-08T22:24:33.893Z,103238.66
2023-02-08T22:27:39.697Z,103237.84
2023-02-08T22:30:43.125Z,103238.75
2023-02-08T22:33:46.337Z,103238.66
2023-02-08T22:36:49.418Z,103236.81
2023-02-08T22:39:52.437Z,103226.59
2023-02-08T22:42:56.890Z,103224.03
2023-02-08T22:46:00.773Z,103231.78
2023-02-08T22:49:04.192Z,103227.44
2023-02-08T22:52:09.150Z,103233.34
2023-02-08T22:55:12.448Z,103225.59
2023-02-08T22:58:16.810Z,103213.72
2023-02-08T23:01:20.798Z,103209.31
2023-02-08T23:04:23.921Z,103210.09
2023-02-08T23:07:27.574Z,103214.13
2023-02-08T23:10:30.767Z,103209.13
2023-02-08T23:13:36.180Z,103204.81
2023-02-08T23:16:39.697Z,103208.22
2023-02-08T23:19:44.865Z,103204.66
2023-02-08T23:22:47.904Z,103208.88
2023-02-08T23:25:53.491Z,103203.63
2023-02-08T23:28:58.093Z,103211.41
2023-02-08T23:32:04.639Z,103205.44
2023-02-08T23:35:10.130Z,103208.88
2023-02-08T23:38:13.322Z,103200.25
2023-02-08T23:41:19.380Z,103197.31
2023-02-08T23:44:26.490Z,103188.94
2023-02-08T23:47:32.877Z,103188.81
2023-02-08T23:50:36.018Z,103188.63
2023-02-08T23:53:39.112Z,103188.63
2023-02-08T23:56:42.138Z,103197.59
2023-02-08T23:59:46.573Z,103196.09
